sensor_id;sensor_type;location;lat;lon;timestamp;temperature;humidity
69747;DHT22;57018;50.278;19.134;2022-09-21T00:00:39;9.40;99.90
69747;DHT22;57018;50.278;19.134;2022-09-21T00:03:06;9.30;99.90
69747;DHT22;57018;50.278;19.134;2022-09-21T00:05:33;9.50;99.90
69747;DHT22;57018;50.278;19.134;2022-09-21T00:08:01;9.20;99.90
69747;DHT22;57018;50.278;19.134;2022-09-21T00:10:29;9.40;99.90
69747;DHT22;57018;50.278;19.134;2022-09-21T00:12:59;9.20;99.90
69747;DHT22;57018;50.278;19.134;2022-09-21T00:15:25;9.30;99.90
69747;DHT22;57018;50.278;19.134;2022-09-21T00:17:52;9.30;99.90
69747;DHT22;57018;50.278;19.134;2022-09-21T00:20:19;9.30;99.90
69747;DHT22;57018;50.278;19.134;2022-09-21T00:22:48;9.20;99.90
69747;DHT22;57018;50.278;19.134;2022-09-21T00:25:14;9.20;99.90
69747;DHT22;57018;50.278;19.134;2022-09-21T00:27:40;9.20;99.90
69747;DHT22;57018;50.278;19.134;2022-09-21T00:30:07;9.00;99.90
69747;DHT22;57018;50.278;19.134;2022-09-21T00:32:36;9.20;99.90
69747;DHT22;57018;50.278;19.134;2022-09-21T00:35:05;8.90;99.90
69747;DHT22;57018;50.278;19.134;2022-09-21T00:37:33;9.10;99.90
69747;DHT22;57018;50.278;19.134;2022-09-21T00:39:59;9.10;99.90
69747;DHT22;57018;50.278;19.134;2022-09-21T00:42:32;8.90;99.90
69747;DHT22;57018;50.278;19.134;2022-09-21T00:44:55;8.90;99.90
69747;DHT22;57018;50.278;19.134;2022-09-21T00:47:27;9.10;99.90
69747;DHT22;57018;50.278;19.134;2022-09-21T00:49:56;9.10;99.90
69747;DHT22;57018;50.278;19.134;2022-09-21T00:52:25;9.10;99.90
69747;DHT22;57018;50.278;19.134;2022-09-21T00:55:03;9.10;99.90
69747;DHT22;57018;50.278;19.134;2022-09-21T00:57:28;9.00;99.90
69747;DHT22;57018;50.278;19.134;2022-09-21T01:00:00;9.10;99.90
69747;DHT22;57018;50.278;19.134;2022-09-21T01:02:27;9.20;99.90
69747;DHT22;57018;50.278;19.134;2022-09-21T01:04:54;9.30;99.90
69747;DHT22;57018;50.278;19.134;2022-09-21T01:07:23;9.30;99.90
69747;DHT22;57018;50.278;19.134;2022-09-21T01:09:53;9.50;99.90
69747;DHT22;57018;50.278;19.134;2022-09-21T01:20:45;9.80;99.90
69747;DHT22;57018;50.278;19.134;2022-09-21T01:23:20;9.90;99.90
69747;DHT22;57018;50.278;19.134;2022-09-21T01:31:18;9.90;99.90
69747;DHT22;57018;50.278;19.134;2022-09-21T01:33:53;9.90;99.90
69747;DHT22;57018;50.278;19.134;2022-09-21T01:36:22;9.80;99.90
69747;DHT22;57018;50.278;19.134;2022-09-21T01:38:53;9.90;99.90
69747;DHT22;57018;50.278;19.134;2022-09-21T01:41:21;9.80;99.90
69747;DHT22;57018;50.278;19.134;2022-09-21T01:43:52;9.90;99.90
69747;DHT22;57018;50.278;19.134;2022-09-21T01:46:23;9.90;99.90
69747;DHT22;57018;50.278;19.134;2022-09-21T01:48:55;9.90;99.90
69747;DHT22;57018;50.278;19.134;2022-09-21T01:51:25;9.90;99.90
69747;DHT22;57018;50.278;19.134;2022-09-21T01:53:55;9.90;99.90
69747;DHT22;57018;50.278;19.134;2022-09-21T01:56:29;9.80;99.90
69747;DHT22;57018;50.278;19.134;2022-09-21T01:59:06;10.00;99.90
69747;DHT22;57018;50.278;19.134;2022-09-21T02:01:33;10.00;99.90
69747;DHT22;57018;50.278;19.134;2022-09-21T02:04:03;10.00;99.90
69747;DHT22;57018;50.278;19.134;2022-09-21T02:06:30;10.00;99.90
69747;DHT22;57018;50.278;19.134;2022-09-21T02:08:56;9.80;99.90
69747;DHT22;57018;50.278;19.134;2022-09-21T02:11:23;10.00;99.90
69747;DHT22;57018;50.278;19.134;2022-09-21T02:13:52;9.90;99.90
69747;DHT22;57018;50.278;19.134;2022-09-21T02:19:09;10.00;99.90
69747;DHT22;57018;50.278;19.134;2022-09-21T02:24:47;10.00;99.90
69747;DHT22;57018;50.278;19.134;2022-09-21T02:27:37;10.00;99.90
69747;DHT22;57018;50.278;19.134;2022-09-21T02:30:13;9.90;99.90
69747;DHT22;57018;50.278;19.134;2022-09-21T02:35:47;10.00;99.90
69747;DHT22;57018;50.278;19.134;2022-09-21T02:38:31;10.00;99.90
69747;DHT22;57018;50.278;19.134;2022-09-21T02:41:05;9.80;99.90
69747;DHT22;57018;50.278;19.134;2022-09-21T02:46:33;10.00;99.90
69747;DHT22;57018;50.278;19.134;2022-09-21T02:49:02;9.90;99.90
69747;DHT22;57018;50.278;19.134;2022-09-21T02:51:30;9.90;99.90
69747;DHT22;57018;50.278;19.134;2022-09-21T02:54:01;9.90;99.90
69747;DHT22;57018;50.278;19.134;2022-09-21T02:56:29;9.80;99.90
69747;DHT22;57018;50.278;19.134;2022-09-21T02:58:58;9.80;99.90
69747;DHT22;57018;50.278;19.134;2022-09-21T03:01:26;9.90;99.90
69747;DHT22;57018;50.278;19.134;2022-09-21T03:03:53;10.10;99.90
69747;DHT22;57018;50.278;19.134;2022-09-21T03:06:19;9.90;99.90
69747;DHT22;57018;50.278;19.134;2022-09-21T03:08:45;10.00;99.90
69747;DHT22;57018;50.278;19.134;2022-09-21T03:11:15;9.90;99.90
69747;DHT22;57018;50.278;19.134;2022-09-21T03:13:41;9.90;99.90
69747;DHT22;57018;50.278;19.134;2022-09-21T03:16:07;9.80;99.90
69747;DHT22;57018;50.278;19.134;2022-09-21T03:18:34;9.80;99.90
69747;DHT22;57018;50.278;19.134;2022-09-21T03:21:00;9.80;99.90
69747;DHT22;57018;50.278;19.134;2022-09-21T03:23:28;9.70;99.90
69747;DHT22;57018;50.278;19.134;2022-09-21T03:25:54;9.70;99.90
69747;DHT22;57018;50.278;19.134;2022-09-21T03:28:21;9.60;99.90
69747;DHT22;57018;50.278;19.134;2022-09-21T03:30:49;9.70;99.90
69747;DHT22;57018;50.278;19.134;2022-09-21T03:33:17;9.70;99.90
69747;DHT22;57018;50.278;19.134;2022-09-21T03:35:44;9.70;99.90
69747;DHT22;57018;50.278;19.134;2022-09-21T03:38:11;9.60;99.90
69747;DHT22;57018;50.278;19.134;2022-09-21T03:40:37;9.60;99.90
69747;DHT22;57018;50.278;19.134;2022-09-21T03:43:03;9.60;99.90
69747;DHT22;57018;50.278;19.134;2022-09-21T03:45:29;9.60;99.90
69747;DHT22;57018;50.278;19.134;2022-09-21T03:47:57;9.70;99.90
69747;DHT22;57018;50.278;19.134;2022-09-21T03:50:25;9.60;99.90
69747;DHT22;57018;50.278;19.134;2022-09-21T03:52:53;9.50;99.90
69747;DHT22;57018;50.278;19.134;2022-09-21T03:55:20;9.60;99.90
69747;DHT22;57018;50.278;19.134;2022-09-21T03:57:47;9.50;99.90
69747;DHT22;57018;50.278;19.134;2022-09-21T04:00:14;9.60;99.90
69747;DHT22;57018;50.278;19.134;2022-09-21T04:02:40;9.60;99.90
69747;DHT22;57018;50.278;19.134;2022-09-21T04:05:12;9.70;99.90
69747;DHT22;57018;50.278;19.134;2022-09-21T04:07:42;9.80;99.90
69747;DHT22;57018;50.278;19.134;2022-09-21T04:10:12;9.80;99.90
69747;DHT22;57018;50.278;19.134;2022-09-21T04:12:40;9.90;99.90
69747;DHT22;57018;50.278;19.134;2022-09-21T04:15:13;9.80;99.90
69747;DHT22;57018;50.278;19.134;2022-09-21T04:17:41;9.90;99.90
69747;DHT22;57018;50.278;19.134;2022-09-21T04:20:08;9.90;99.90
69747;DHT22;57018;50.278;19.134;2022-09-21T04:22:35;10.00;99.90
69747;DHT22;57018;50.278;19.134;2022-09-21T04:25:04;10.00;99.90
69747;DHT22;57018;50.278;19.134;2022-09-21T04:27:31;10.00;99.90
69747;DHT22;57018;50.278;19.134;2022-09-21T04:29:58;10.20;99.90
69747;DHT22;57018;50.278;19.134;2022-09-21T04:32:25;10.10;99.90
69747;DHT22;57018;50.278;19.134;2022-09-21T04:34:51;10.10;99.90
69747;DHT22;57018;50.278;19.134;2022-09-21T04:37:17;10.10;99.90
69747;DHT22;57018;50.278;19.134;2022-09-21T04:39:43;10.00;99.90
69747;DHT22;57018;50.278;19.134;2022-09-21T04:42:10;10.10;99.90
69747;DHT22;57018;50.278;19.134;2022-09-21T04:44:36;10.30;99.90
69747;DHT22;57018;50.278;19.134;2022-09-21T04:47:02;10.20;99.90
69747;DHT22;57018;50.278;19.134;2022-09-21T04:49:28;10.00;99.90
69747;DHT22;57018;50.278;19.134;2022-09-21T04:51:54;10.10;99.90
69747;DHT22;57018;50.278;19.134;2022-09-21T04:54:20;10.20;99.90
69747;DHT22;57018;50.278;19.134;2022-09-21T04:56:47;10.00;99.90
69747;DHT22;57018;50.278;19.134;2022-09-21T04:59:13;10.20;99.90
69747;DHT22;57018;50.278;19.134;2022-09-21T05:01:39;10.20;99.90
69747;DHT22;57018;50.278;19.134;2022-09-21T05:04:05;10.20;99.90
69747;DHT22;57018;50.278;19.134;2022-09-21T05:06:33;10.20;99.90
69747;DHT22;57018;50.278;19.134;2022-09-21T05:08:59;10.30;99.90
69747;DHT22;57018;50.278;19.134;2022-09-21T05:11:44;10.30;99.90
69747;DHT22;57018;50.278;19.134;2022-09-21T05:14:10;10.40;99.90
69747;DHT22;57018;50.278;19.134;2022-09-21T05:16:37;10.40;99.90
69747;DHT22;57018;50.278;19.134;2022-09-21T05:19:03;10.30;99.90
69747;DHT22;57018;50.278;19.134;2022-09-21T05:21:29;10.30;99.90
69747;DHT22;57018;50.278;19.134;2022-09-21T05:23:58;10.30;99.90
69747;DHT22;57018;50.278;19.134;2022-09-21T05:26:24;10.30;99.90
69747;DHT22;57018;50.278;19.134;2022-09-21T05:28:51;10.30;99.90
69747;DHT22;57018;50.278;19.134;2022-09-21T05:34:25;10.40;99.90
69747;DHT22;57018;50.278;19.134;2022-09-21T05:36:59;10.40;99.90
69747;DHT22;57018;50.278;19.134;2022-09-21T05:39:26;10.30;99.90
69747;DHT22;57018;50.278;19.134;2022-09-21T05:41:52;10.20;99.90
69747;DHT22;57018;50.278;19.134;2022-09-21T05:44:19;10.30;99.90
69747;DHT22;57018;50.278;19.134;2022-09-21T05:46:49;10.30;99.90
69747;DHT22;57018;50.278;19.134;2022-09-21T05:49:19;10.40;99.90
69747;DHT22;57018;50.278;19.134;2022-09-21T06:05:17;10.60;99.90
69747;DHT22;57018;50.278;19.134;2022-09-21T06:07:45;10.60;99.90
69747;DHT22;57018;50.278;19.134;2022-09-21T06:10:12;10.60;99.90
69747;DHT22;57018;50.278;19.134;2022-09-21T06:12:39;10.70;99.90
69747;DHT22;57018;50.278;19.134;2022-09-21T06:15:11;10.70;99.90
69747;DHT22;57018;50.278;19.134;2022-09-21T06:17:38;10.80;99.90
69747;DHT22;57018;50.278;19.134;2022-09-21T06:20:06;10.90;99.90
69747;DHT22;57018;50.278;19.134;2022-09-21T06:22:33;11.00;99.90
69747;DHT22;57018;50.278;19.134;2022-09-21T06:24:59;10.90;99.90
69747;DHT22;57018;50.278;19.134;2022-09-21T06:27:26;10.90;99.90
69747;DHT22;57018;50.278;19.134;2022-09-21T06:29:53;10.90;99.90
69747;DHT22;57018;50.278;19.134;2022-09-21T06:32:19;11.10;99.90
69747;DHT22;57018;50.278;19.134;2022-09-21T06:34:45;11.00;99.90
69747;DHT22;57018;50.278;19.134;2022-09-21T06:37:12;11.10;99.90
69747;DHT22;57018;50.278;19.134;2022-09-21T06:39:38;11.20;99.90
69747;DHT22;57018;50.278;19.134;2022-09-21T06:42:04;11.20;99.60
69747;DHT22;57018;50.278;19.134;2022-09-21T06:44:30;11.50;99.20
69747;DHT22;57018;50.278;19.134;2022-09-21T06:46:56;11.50;98.10
69747;DHT22;57018;50.278;19.134;2022-09-21T06:49:22;11.50;97.80
69747;DHT22;57018;50.278;19.134;2022-09-21T06:51:48;11.60;97.70
69747;DHT22;57018;50.278;19.134;2022-09-21T06:54:15;11.70;97.00
69747;DHT22;57018;50.278;19.134;2022-09-21T06:56:43;11.70;96.50
69747;DHT22;57018;50.278;19.134;2022-09-21T06:59:09;11.80;96.10
69747;DHT22;57018;50.278;19.134;2022-09-21T07:01:35;11.80;96.40
69747;DHT22;57018;50.278;19.134;2022-09-21T07:04:02;11.70;96.60
69747;DHT22;57018;50.278;19.134;2022-09-21T07:06:28;11.80;97.40
69747;DHT22;57018;50.278;19.134;2022-09-21T07:08:54;11.90;96.90
69747;DHT22;57018;50.278;19.134;2022-09-21T07:11:20;12.00;96.10
69747;DHT22;57018;50.278;19.134;2022-09-21T07:13:49;11.90;95.80
69747;DHT22;57018;50.278;19.134;2022-09-21T07:16:15;12.00;96.00
69747;DHT22;57018;50.278;19.134;2022-09-21T07:18:42;11.80;96.20
69747;DHT22;57018;50.278;19.134;2022-09-21T07:21:09;11.80;96.30
69747;DHT22;57018;50.278;19.134;2022-09-21T07:23:36;11.60;96.80
69747;DHT22;57018;50.278;19.134;2022-09-21T07:26:05;11.50;97.70
69747;DHT22;57018;50.278;19.134;2022-09-21T07:28:31;11.50;98.00
69747;DHT22;57018;50.278;19.134;2022-09-21T07:30:58;11.50;99.30
69747;DHT22;57018;50.278;19.134;2022-09-21T07:33:26;11.40;99.90
69747;DHT22;57018;50.278;19.134;2022-09-21T07:35:53;11.50;99.50
69747;DHT22;57018;50.278;19.134;2022-09-21T07:38:21;11.40;99.90
69747;DHT22;57018;50.278;19.134;2022-09-21T07:40:49;11.50;99.90
69747;DHT22;57018;50.278;19.134;2022-09-21T07:43:15;11.50;99.90
69747;DHT22;57018;50.278;19.134;2022-09-21T07:45:41;11.60;99.90
69747;DHT22;57018;50.278;19.134;2022-09-21T07:48:07;11.60;99.90
69747;DHT22;57018;50.278;19.134;2022-09-21T07:50:34;11.60;99.80
69747;DHT22;57018;50.278;19.134;2022-09-21T07:53:01;11.60;99.90
69747;DHT22;57018;50.278;19.134;2022-09-21T07:55:29;11.40;99.90
69747;DHT22;57018;50.278;19.134;2022-09-21T07:57:58;11.20;99.90
69747;DHT22;57018;50.278;19.134;2022-09-21T08:00:43;11.00;99.90
69747;DHT22;57018;50.278;19.134;2022-09-21T08:03:10;10.90;99.90
69747;DHT22;57018;50.278;19.134;2022-09-21T08:05:36;10.50;99.90
69747;DHT22;57018;50.278;19.134;2022-09-21T08:08:02;10.50;99.90
69747;DHT22;57018;50.278;19.134;2022-09-21T08:10:28;10.40;99.90
69747;DHT22;57018;50.278;19.134;2022-09-21T08:12:56;10.20;99.90
69747;DHT22;57018;50.278;19.134;2022-09-21T08:15:22;10.30;99.90
69747;DHT22;57018;50.278;19.134;2022-09-21T08:17:49;10.50;99.90
69747;DHT22;57018;50.278;19.134;2022-09-21T08:20:16;10.60;99.90
69747;DHT22;57018;50.278;19.134;2022-09-21T08:22:43;10.70;99.90
69747;DHT22;57018;50.278;19.134;2022-09-21T08:25:09;10.60;99.90
69747;DHT22;57018;50.278;19.134;2022-09-21T08:27:36;10.70;99.90
69747;DHT22;57018;50.278;19.134;2022-09-21T08:30:05;10.80;99.90
69747;DHT22;57018;50.278;19.134;2022-09-21T08:32:32;10.80;99.90
69747;DHT22;57018;50.278;19.134;2022-09-21T08:34:58;10.90;99.90
69747;DHT22;57018;50.278;19.134;2022-09-21T08:37:25;11.00;99.90
69747;DHT22;57018;50.278;19.134;2022-09-21T08:39:51;11.00;99.90
69747;DHT22;57018;50.278;19.134;2022-09-21T08:45:05;11.10;99.90
69747;DHT22;57018;50.278;19.134;2022-09-21T08:50:22;11.10;99.90
69747;DHT22;57018;50.278;19.134;2022-09-21T08:52:48;11.10;99.90
69747;DHT22;57018;50.278;19.134;2022-09-21T08:55:19;11.10;99.90
69747;DHT22;57018;50.278;19.134;2022-09-21T08:57:45;11.20;99.90
69747;DHT22;57018;50.278;19.134;2022-09-21T09:00:16;11.30;99.90
69747;DHT22;57018;50.278;19.134;2022-09-21T09:03:25;11.30;99.90
69747;DHT22;57018;50.278;19.134;2022-09-21T09:06:08;11.30;99.90
69747;DHT22;57018;50.278;19.134;2022-09-21T09:14:30;12.10;99.90
69747;DHT22;57018;50.278;19.134;2022-09-21T09:19:47;12.20;99.90
69747;DHT22;57018;50.278;19.134;2022-09-21T09:22:14;12.20;99.90
69747;DHT22;57018;50.278;19.134;2022-09-21T09:24:49;12.20;98.50
69747;DHT22;57018;50.278;19.134;2022-09-21T09:27:21;12.30;99.40
69747;DHT22;57018;50.278;19.134;2022-09-21T09:35:33;13.10;94.50
69747;DHT22;57018;50.278;19.134;2022-09-21T09:38:24;12.90;94.50
69747;DHT22;57018;50.278;19.134;2022-09-21T09:43:30;12.60;96.30
69747;DHT22;57018;50.278;19.134;2022-09-21T09:49:12;13.60;93.70
69747;DHT22;57018;50.278;19.134;2022-09-21T09:51:38;14.00;90.90
69747;DHT22;57018;50.278;19.134;2022-09-21T09:54:11;14.00;89.20
69747;DHT22;57018;50.278;19.134;2022-09-21T09:56:36;13.90;89.70
69747;DHT22;57018;50.278;19.134;2022-09-21T09:59:04;14.00;89.40
69747;DHT22;57018;50.278;19.134;2022-09-21T10:01:39;13.90;89.70
69747;DHT22;57018;50.278;19.134;2022-09-21T10:04:09;13.70;90.00
69747;DHT22;57018;50.278;19.134;2022-09-21T10:06:36;13.90;90.20
69747;DHT22;57018;50.278;19.134;2022-09-21T10:09:22;14.00;89.70
69747;DHT22;57018;50.278;19.134;2022-09-21T10:11:47;14.10;89.10
69747;DHT22;57018;50.278;19.134;2022-09-21T10:14:20;14.20;89.10
69747;DHT22;57018;50.278;19.134;2022-09-21T10:16:48;14.30;88.30
69747;DHT22;57018;50.278;19.134;2022-09-21T10:19:22;14.50;88.70
69747;DHT22;57018;50.278;19.134;2022-09-21T10:21:57;14.50;87.20
69747;DHT22;57018;50.278;19.134;2022-09-21T10:24:32;14.50;86.10
69747;DHT22;57018;50.278;19.134;2022-09-21T10:27:11;14.50;86.30
69747;DHT22;57018;50.278;19.134;2022-09-21T10:29:43;14.50;85.90
69747;DHT22;57018;50.278;19.134;2022-09-21T10:37:31;14.60;85.20
69747;DHT22;57018;50.278;19.134;2022-09-21T10:40:03;14.90;85.50
69747;DHT22;57018;50.278;19.134;2022-09-21T10:42:37;15.00;84.50
69747;DHT22;57018;50.278;19.134;2022-09-21T10:45:25;15.20;81.80
69747;DHT22;57018;50.278;19.134;2022-09-21T10:50:38;15.10;82.90
69747;DHT22;57018;50.278;19.134;2022-09-21T10:53:18;14.90;83.90
69747;DHT22;57018;50.278;19.134;2022-09-21T10:55:43;15.00;82.10
69747;DHT22;57018;50.278;19.134;2022-09-21T10:58:12;14.70;81.20
69747;DHT22;57018;50.278;19.134;2022-09-21T11:00:47;14.40;83.10
69747;DHT22;57018;50.278;19.134;2022-09-21T11:03:46;14.40;83.00
69747;DHT22;57018;50.278;19.134;2022-09-21T11:06:23;14.40;83.20
69747;DHT22;57018;50.278;19.134;2022-09-21T11:08:56;14.50;81.90
69747;DHT22;57018;50.278;19.134;2022-09-21T11:14:19;14.70;82.10
69747;DHT22;57018;50.278;19.134;2022-09-21T11:17:06;14.70;81.60
69747;DHT22;57018;50.278;19.134;2022-09-21T11:22:25;14.80;81.90
69747;DHT22;57018;50.278;19.134;2022-09-21T11:24:58;14.90;82.00
69747;DHT22;57018;50.278;19.134;2022-09-21T11:27:43;14.80;81.60
69747;DHT22;57018;50.278;19.134;2022-09-21T11:30:15;14.90;81.70
69747;DHT22;57018;50.278;19.134;2022-09-21T12:00:42;15.30;79.40
69747;DHT22;57018;50.278;19.134;2022-09-21T12:11:38;15.30;78.20
69747;DHT22;57018;50.278;19.134;2022-09-21T12:17:09;15.40;78.50
69747;DHT22;57018;50.278;19.134;2022-09-21T12:19:37;15.40;76.30
69747;DHT22;57018;50.278;19.134;2022-09-21T12:22:06;15.30;78.80
69747;DHT22;57018;50.278;19.134;2022-09-21T12:24:36;15.20;79.10
69747;DHT22;57018;50.278;19.134;2022-09-21T12:27:07;15.10;79.10
69747;DHT22;57018;50.278;19.134;2022-09-21T12:29:40;15.00;80.00
69747;DHT22;57018;50.278;19.134;2022-09-21T12:34:54;15.10;78.50
69747;DHT22;57018;50.278;19.134;2022-09-21T12:37:21;15.10;79.60
69747;DHT22;57018;50.278;19.134;2022-09-21T12:45:24;14.90;80.70
69747;DHT22;57018;50.278;19.134;2022-09-21T12:50:48;15.00;81.10
69747;DHT22;57018;50.278;19.134;2022-09-21T12:53:18;15.40;80.50
69747;DHT22;57018;50.278;19.134;2022-09-21T12:56:02;15.70;77.90
69747;DHT22;57018;50.278;19.134;2022-09-21T13:06:46;17.10;71.10
69747;DHT22;57018;50.278;19.134;2022-09-21T13:09:12;17.50;70.10
69747;DHT22;57018;50.278;19.134;2022-09-21T13:11:51;17.60;70.40
69747;DHT22;57018;50.278;19.134;2022-09-21T13:14:19;17.30;69.80
69747;DHT22;57018;50.278;19.134;2022-09-21T13:16:53;17.10;70.40
69747;DHT22;57018;50.278;19.134;2022-09-21T13:19:24;16.80;71.30
69747;DHT22;57018;50.278;19.134;2022-09-21T13:24:42;16.40;71.70
69747;DHT22;57018;50.278;19.134;2022-09-21T13:27:10;16.40;71.80
69747;DHT22;57018;50.278;19.134;2022-09-21T13:29:38;16.30;72.00
69747;DHT22;57018;50.278;19.134;2022-09-21T13:34:46;15.90;75.40
69747;DHT22;57018;50.278;19.134;2022-09-21T13:47:54;15.30;78.10
69747;DHT22;57018;50.278;19.134;2022-09-21T13:52:59;15.60;75.60
69747;DHT22;57018;50.278;19.134;2022-09-21T13:55:29;15.90;73.60
69747;DHT22;57018;50.278;19.134;2022-09-21T13:57:59;16.20;71.90
69747;DHT22;57018;50.278;19.134;2022-09-21T14:00:41;16.30;70.50
69747;DHT22;57018;50.278;19.134;2022-09-21T14:03:25;16.40;70.10
69747;DHT22;57018;50.278;19.134;2022-09-21T14:06:00;16.20;69.20
69747;DHT22;57018;50.278;19.134;2022-09-21T14:08:28;16.20;70.10
69747;DHT22;57018;50.278;19.134;2022-09-21T14:11:05;16.10;70.70
69747;DHT22;57018;50.278;19.134;2022-09-21T14:13:44;16.10;70.70
69747;DHT22;57018;50.278;19.134;2022-09-21T14:24:40;15.90;69.20
69747;DHT22;57018;50.278;19.134;2022-09-21T14:27:29;15.90;69.00
69747;DHT22;57018;50.278;19.134;2022-09-21T14:35:21;15.50;69.00
69747;DHT22;57018;50.278;19.134;2022-09-21T14:38:04;15.40;71.10
69747;DHT22;57018;50.278;19.134;2022-09-21T14:40:35;15.30;72.50
69747;DHT22;57018;50.278;19.134;2022-09-21T14:43:00;15.00;72.60
69747;DHT22;57018;50.278;19.134;2022-09-21T14:45:40;15.00;73.70
69747;DHT22;57018;50.278;19.134;2022-09-21T14:50:49;14.90;75.00
69747;DHT22;57018;50.278;19.134;2022-09-21T14:56:20;14.80;76.00
69747;DHT22;57018;50.278;19.134;2022-09-21T15:02:18;14.80;76.70
69747;DHT22;57018;50.278;19.134;2022-09-21T15:10:30;14.60;76.60
69747;DHT22;57018;50.278;19.134;2022-09-21T15:18:49;14.50;76.70
69747;DHT22;57018;50.278;19.134;2022-09-21T15:21:28;14.60;77.20
69747;DHT22;57018;50.278;19.134;2022-09-21T15:23:55;14.70;76.10
69747;DHT22;57018;50.278;19.134;2022-09-21T15:26:29;14.80;75.00
69747;DHT22;57018;50.278;19.134;2022-09-21T15:28:59;14.90;75.20
69747;DHT22;57018;50.278;19.134;2022-09-21T15:31:37;15.10;74.50
69747;DHT22;57018;50.278;19.134;2022-09-21T15:34:05;15.10;75.40
69747;DHT22;57018;50.278;19.134;2022-09-21T15:36:36;15.10;76.70
69747;DHT22;57018;50.278;19.134;2022-09-21T15:39:02;15.00;76.30
69747;DHT22;57018;50.278;19.134;2022-09-21T15:41:41;14.70;76.60
69747;DHT22;57018;50.278;19.134;2022-09-21T15:44:17;14.50;77.20
69747;DHT22;57018;50.278;19.134;2022-09-21T15:46:53;14.30;76.90
69747;DHT22;57018;50.278;19.134;2022-09-21T15:49:18;14.00;76.20
69747;DHT22;57018;50.278;19.134;2022-09-21T15:52:02;13.80;76.90
69747;DHT22;57018;50.278;19.134;2022-09-21T15:54:40;13.60;77.50
69747;DHT22;57018;50.278;19.134;2022-09-21T15:57:32;13.40;78.30
69747;DHT22;57018;50.278;19.134;2022-09-21T16:00:16;13.00;79.20
69747;DHT22;57018;50.278;19.134;2022-09-21T16:02:34;13.00;79.60
69747;DHT22;57018;50.278;19.134;2022-09-21T16:05:01;12.80;79.60
69747;DHT22;57018;50.278;19.134;2022-09-21T16:07:36;12.80;80.40
69747;DHT22;57018;50.278;19.134;2022-09-21T16:12:58;12.70;82.20
69747;DHT22;57018;50.278;19.134;2022-09-21T16:15:26;12.60;82.80
69747;DHT22;57018;50.278;19.134;2022-09-21T16:18:02;12.50;83.00
69747;DHT22;57018;50.278;19.134;2022-09-21T16:20:44;12.50;82.90
69747;DHT22;57018;50.278;19.134;2022-09-21T16:23:15;12.30;83.40
69747;DHT22;57018;50.278;19.134;2022-09-21T16:25:42;12.20;84.20
69747;DHT22;57018;50.278;19.134;2022-09-21T16:30:50;12.00;85.60
69747;DHT22;57018;50.278;19.134;2022-09-21T16:38:52;11.70;88.00
69747;DHT22;57018;50.278;19.134;2022-09-21T16:41:20;11.60;88.80
69747;DHT22;57018;50.278;19.134;2022-09-21T16:43:47;11.60;89.90
69747;DHT22;57018;50.278;19.134;2022-09-21T16:46:16;11.70;90.80
69747;DHT22;57018;50.278;19.134;2022-09-21T16:48:43;11.70;91.20
69747;DHT22;57018;50.278;19.134;2022-09-21T16:51:14;11.60;92.00
69747;DHT22;57018;50.278;19.134;2022-09-21T16:53:42;11.50;92.60
69747;DHT22;57018;50.278;19.134;2022-09-21T16:56:12;11.60;93.90
69747;DHT22;57018;50.278;19.134;2022-09-21T16:58:40;11.50;94.50
69747;DHT22;57018;50.278;19.134;2022-09-21T17:01:14;11.40;95.00
69747;DHT22;57018;50.278;19.134;2022-09-21T17:03:41;11.30;95.30
69747;DHT22;57018;50.278;19.134;2022-09-21T17:06:16;11.30;96.30
69747;DHT22;57018;50.278;19.134;2022-09-21T17:08:43;11.00;97.10
69747;DHT22;57018;50.278;19.134;2022-09-21T17:11:11;11.10;97.70
69747;DHT22;57018;50.278;19.134;2022-09-21T17:13:37;10.90;98.30
69747;DHT22;57018;50.278;19.134;2022-09-21T17:16:04;10.90;98.80
69747;DHT22;57018;50.278;19.134;2022-09-21T17:18:30;10.80;98.60
69747;DHT22;57018;50.278;19.134;2022-09-21T17:20:56;10.70;99.40
69747;DHT22;57018;50.278;19.134;2022-09-21T17:23:22;10.70;99.70
69747;DHT22;57018;50.278;19.134;2022-09-21T17:25:50;10.70;99.80
69747;DHT22;57018;50.278;19.134;2022-09-21T17:28:20;10.50;99.90
69747;DHT22;57018;50.278;19.134;2022-09-21T17:30:48;10.60;99.90
69747;DHT22;57018;50.278;19.134;2022-09-21T17:33:14;10.50;99.90
69747;DHT22;57018;50.278;19.134;2022-09-21T17:35:42;10.50;99.90
69747;DHT22;57018;50.278;19.134;2022-09-21T17:38:08;10.40;99.90
69747;DHT22;57018;50.278;19.134;2022-09-21T17:40:35;10.30;99.90
69747;DHT22;57018;50.278;19.134;2022-09-21T17:43:16;10.30;99.90
69747;DHT22;57018;50.278;19.134;2022-09-21T17:45:53;10.30;99.90
69747;DHT22;57018;50.278;19.134;2022-09-21T17:48:20;10.20;99.90
69747;DHT22;57018;50.278;19.134;2022-09-21T17:50:48;10.20;99.90
69747;DHT22;57018;50.278;19.134;2022-09-21T17:53:15;10.10;99.90
69747;DHT22;57018;50.278;19.134;2022-09-21T17:59:03;10.00;99.90
69747;DHT22;57018;50.278;19.134;2022-09-21T18:04:01;10.00;99.90
69747;DHT22;57018;50.278;19.134;2022-09-21T18:06:28;9.90;99.90
69747;DHT22;57018;50.278;19.134;2022-09-21T18:08:55;10.00;99.90
69747;DHT22;57018;50.278;19.134;2022-09-21T18:11:30;9.90;99.90
69747;DHT22;57018;50.278;19.134;2022-09-21T18:22:52;10.00;99.90
69747;DHT22;57018;50.278;19.134;2022-09-21T18:25:34;10.10;99.90
69747;DHT22;57018;50.278;19.134;2022-09-21T18:28:01;10.10;99.90
69747;DHT22;57018;50.278;19.134;2022-09-21T18:30:27;10.00;99.90
69747;DHT22;57018;50.278;19.134;2022-09-21T18:33:41;10.00;99.90
69747;DHT22;57018;50.278;19.134;2022-09-21T18:38:36;10.00;99.90
69747;DHT22;57018;50.278;19.134;2022-09-21T18:49:34;10.30;99.90
69747;DHT22;57018;50.278;19.134;2022-09-21T18:54:33;10.40;99.90
69747;DHT22;57018;50.278;19.134;2022-09-21T18:57:00;10.50;99.90
69747;DHT22;57018;50.278;19.134;2022-09-21T18:59:26;10.60;99.90
69747;DHT22;57018;50.278;19.134;2022-09-21T19:01:54;10.70;99.90
69747;DHT22;57018;50.278;19.134;2022-09-21T19:04:20;10.80;99.90
69747;DHT22;57018;50.278;19.134;2022-09-21T19:06:59;10.80;99.90
69747;DHT22;57018;50.278;19.134;2022-09-21T19:09:41;10.90;99.90
69747;DHT22;57018;50.278;19.134;2022-09-21T19:28:00;11.00;99.90
69747;DHT22;57018;50.278;19.134;2022-09-21T19:30:27;11.10;99.90
69747;DHT22;57018;50.278;19.134;2022-09-21T19:32:55;11.20;99.90
69747;DHT22;57018;50.278;19.134;2022-09-21T19:35:31;11.20;99.90
69747;DHT22;57018;50.278;19.134;2022-09-21T19:38:00;11.20;99.90
69747;DHT22;57018;50.278;19.134;2022-09-21T19:40:29;11.30;99.90
69747;DHT22;57018;50.278;19.134;2022-09-21T19:48:40;11.30;99.90
69747;DHT22;57018;50.278;19.134;2022-09-21T19:51:03;11.30;99.90